Time;durP1;ratioP1;P1;durP2;ratioP2;P2;SDS_P1;SDS_P2;PMS_P1;PMS_P2;Temp;Humidity;BMP_temperature;BMP_pressure;BME280_temperature;BME280_humidity;BME280_pressure;Samples;Min_cycle;Max_cycle;Signal;HPM_P1;HPM_P2
2022/04/09 00:00:13;;;;;;;4.30;1.27;;;;;;;;;;5014955;28;20029;-71
2022/04/09 00:02:39;;;;;;;4.15;1.40;;;;;;;;;;5014272;28;20084;-71
2022/04/09 00:05:06;;;;;;;2.92;1.30;;;;;;;;;;5015256;28;20381;-71
2022/04/09 00:07:32;;;;;;;4.05;1.50;;;;;;;;;;5015054;28;20069;-71
2022/04/09 00:09:58;;;;;;;1.70;1.10;;;;;;;;;;5014873;28;20037;-71
2022/04/09 00:12:24;;;;;;;2.60;1.02;;;;;;;;;;5011286;28;20068;-71
2022/04/09 00:14:50;;;;;;;3.92;1.42;;;;;;;;;;5014034;28;20029;-71
2022/04/09 00:17:17;;;;;;;3.58;1.20;;;;;;;;;;5010941;28;20045;-71
2022/04/09 00:19:43;;;;;;;3.03;1.20;;;;;;;;;;5016477;28;20029;-71
2022/04/09 00:22:10;;;;;;;3.58;1.20;;;;;;;;;;5013216;28;20049;-71
2022/04/09 00:24:37;;;;;;;1.92;1.10;;;;;;;;;;5014791;28;20508;-71
2022/04/09 00:27:03;;;;;;;2.60;1.25;;;;;;;;;;5013007;28;20029;-71
2022/04/09 00:29:29;;;;;;;3.22;1.35;;;;;;;;;;5015997;28;20017;-71
2022/04/09 00:31:56;;;;;;;1.67;1.15;;;;;;;;;;5011626;28;20041;-71
2022/04/09 00:34:22;;;;;;;2.72;1.17;;;;;;;;;;5011674;28;20125;-71
2022/04/09 00:36:48;;;;;;;2.42;1.00;;;;;;;;;;5013243;28;20390;-72
2022/04/09 00:39:14;;;;;;;2.08;1.00;;;;;;;;;;5013444;28;20061;-71
2022/04/09 00:41:41;;;;;;;4.03;1.13;;;;;;;;;;5014427;28;20074;-71
2022/04/09 00:44:17;;;;;;;1.20;1.00;;;;;;;;;;5014164;28;20482;-71
2022/04/09 00:46:44;;;;;;;2.42;1.00;;;;;;;;;;5012713;28;20033;-71
2022/04/09 00:49:10;;;;;;;2.05;1.02;;;;;;;;;;5012766;28;20021;-71
2022/04/09 00:51:37;;;;;;;5.10;0.90;;;;;;;;;;5012386;28;20362;-71
2022/04/09 00:54:06;;;;;;;0.88;0.77;;;;;;;;;;5011135;28;20037;-71
2022/04/09 00:56:33;;;;;;;2.28;1.05;;;;;;;;;;5015033;28;20034;-71
2022/04/09 00:59:02;;;;;;;2.80;0.70;;;;;;;;;;5014063;28;20018;-71
2022/04/09 01:01:29;;;;;;;1.77;0.85;;;;;;;;;;5012357;28;20627;-71
2022/04/09 01:03:55;;;;;;;2.63;1.10;;;;;;;;;;5014493;28;20018;-71
2022/04/09 01:06:22;;;;;;;2.70;0.90;;;;;;;;;;5005478;28;20060;-71
2022/04/09 01:08:48;;;;;;;3.75;1.00;;;;;;;;;;5015095;28;20022;-71
2022/04/09 01:11:15;;;;;;;6.63;1.10;;;;;;;;;;5014123;28;20042;-72
2022/04/09 01:13:42;;;;;;;1.80;0.90;;;;;;;;;;5016411;28;20539;-71
2022/04/09 01:16:08;;;;;;;5.38;1.00;;;;;;;;;;5015769;28;20456;-71
2022/04/09 01:18:35;;;;;;;2.42;1.00;;;;;;;;;;5013852;28;20474;-71
2022/04/09 01:21:01;;;;;;;2.70;1.05;;;;;;;;;;5016473;28;20034;-71
2022/04/09 01:23:28;;;;;;;2.08;0.95;;;;;;;;;;5016530;28;20029;-71
2022/04/09 01:25:58;;;;;;;3.70;1.00;;;;;;;;;;5017153;28;20064;-71
2022/04/09 01:28:25;;;;;;;4.03;0.85;;;;;;;;;;5014266;28;20029;-71
2022/04/09 01:30:51;;;;;;;4.47;1.10;;;;;;;;;;5018450;28;20466;-71
2022/04/09 01:33:22;;;;;;;1.73;1.00;;;;;;;;;;5016713;28;20033;-75
2022/04/09 01:35:48;;;;;;;5.90;1.05;;;;;;;;;;5018274;28;20036;-71
2022/04/09 01:38:15;;;;;;;3.97;1.30;;;;;;;;;;5016155;28;20025;-71
2022/04/09 01:40:41;;;;;;;4.88;0.85;;;;;;;;;;5019539;28;20086;-71
2022/04/09 01:43:07;;;;;;;4.90;1.05;;;;;;;;;;5015010;28;20033;-71
2022/04/09 01:45:34;;;;;;;2.33;1.58;;;;;;;;;;5017973;28;20041;-71
2022/04/09 01:48:00;;;;;;;2.30;1.00;;;;;;;;;;5012066;28;20057;-71
2022/04/09 01:50:27;;;;;;;2.92;1.30;;;;;;;;;;5012605;28;20071;-71
2022/04/09 01:52:54;;;;;;;2.55;1.10;;;;;;;;;;5013814;28;20474;-71
2022/04/09 01:55:20;;;;;;;1.42;0.75;;;;;;;;;;5013596;28;20030;-71
2022/04/09 01:57:46;;;;;;;2.75;1.30;;;;;;;;;;5011168;28;20025;-70
2022/04/09 02:00:13;;;;;;;1.65;0.88;;;;;;;;;;5010665;28;20497;-72
2022/04/09 02:02:40;;;;;;;1.77;1.00;;;;;;;;;;5007828;28;20524;-71
2022/04/09 02:05:06;;;;;;;3.78;1.10;;;;;;;;;;5014317;28;20517;-71
2022/04/09 02:07:35;;;;;;;3.28;1.10;;;;;;;;;;5011112;28;20034;-71
2022/04/09 02:10:01;;;;;;;2.13;0.70;;;;;;;;;;5009203;28;20093;-71
2022/04/09 02:12:31;;;;;;;4.03;1.23;;;;;;;;;;4996908;28;20059;-71
2022/04/09 02:14:57;;;;;;;1.58;1.05;;;;;;;;;;5012225;28;20053;-71
2022/04/09 02:17:23;;;;;;;2.60;1.10;;;;;;;;;;5013809;28;20466;-71
2022/04/09 02:19:49;;;;;;;3.20;1.70;;;;;;;;;;5006051;28;20045;-71
2022/04/09 02:22:17;;;;;;;2.25;1.15;;;;;;;;;;5011982;28;20029;-71
2022/04/09 02:24:43;;;;;;;6.03;1.30;;;;;;;;;;5010609;28;20915;-71
2022/04/09 02:27:10;;;;;;;1.55;1.00;;;;;;;;;;5011594;28;20040;-71
2022/04/09 02:29:37;;;;;;;3.88;1.20;;;;;;;;;;5011688;28;20024;-71
2022/04/09 02:32:05;;;;;;;2.25;1.17;;;;;;;;;;5010927;28;20042;-71
2022/04/09 02:34:31;;;;;;;2.03;1.15;;;;;;;;;;5014415;28;20056;-71
2022/04/09 02:36:57;;;;;;;3.55;1.20;;;;;;;;;;5009093;28;20037;-71
2022/04/09 02:39:24;;;;;;;4.50;1.23;;;;;;;;;;5008767;28;20076;-71
2022/04/09 02:41:50;;;;;;;3.30;1.20;;;;;;;;;;5013724;28;20388;-71
2022/04/09 02:44:17;;;;;;;1.65;1.10;;;;;;;;;;5011451;28;20030;-71
2022/04/09 02:46:44;;;;;;;1.52;1.00;;;;;;;;;;5012823;28;20096;-71
2022/04/09 02:49:10;;;;;;;4.97;1.17;;;;;;;;;;5011955;28;20026;-71
2022/04/09 02:51:36;;;;;;;3.40;1.27;;;;;;;;;;5008727;28;20061;-71
2022/04/09 02:54:02;;;;;;;2.00;1.30;;;;;;;;;;5010206;28;20393;-71
2022/04/09 02:56:29;;;;;;;4.00;1.50;;;;;;;;;;5011715;28;20382;-71
2022/04/09 02:58:55;;;;;;;2.22;1.45;;;;;;;;;;5010029;28;20030;-71
2022/04/09 03:01:21;;;;;;;2.80;1.10;;;;;;;;;;5011860;28;20029;-71
2022/04/09 03:03:47;;;;;;;2.95;1.40;;;;;;;;;;5008821;28;20045;-71
2022/04/09 03:06:13;;;;;;;2.97;1.10;;;;;;;;;;5010528;28;20045;-71
2022/04/09 03:08:39;;;;;;;3.42;1.17;;;;;;;;;;5014218;28;20029;-71
2022/04/09 03:11:05;;;;;;;1.77;1.05;;;;;;;;;;5007831;28;20539;-71
2022/04/09 03:13:32;;;;;;;1.83;1.20;;;;;;;;;;5013737;28;20026;-71
2022/04/09 03:15:58;;;;;;;2.60;0.93;;;;;;;;;;5009453;28;20813;-71
2022/04/09 03:18:24;;;;;;;5.03;1.40;;;;;;;;;;5008304;28;20036;-71
2022/04/09 03:20:50;;;;;;;2.83;1.13;;;;;;;;;;5010154;28;20853;-71
2022/04/09 03:23:16;;;;;;;2.70;1.27;;;;;;;;;;5005661;28;20022;-71
2022/04/09 03:25:42;;;;;;;2.47;1.30;;;;;;;;;;5009197;28;20478;-71
2022/04/09 03:28:08;;;;;;;2.03;1.38;;;;;;;;;;5009712;28;20792;-71
2022/04/09 03:30:35;;;;;;;1.55;1.23;;;;;;;;;;5009475;28;20045;-76
2022/04/09 03:33:01;;;;;;;3.78;1.20;;;;;;;;;;5008422;28;20021;-75
2022/04/09 03:35:27;;;;;;;2.53;1.30;;;;;;;;;;5008501;28;20030;-71
2022/04/09 03:37:53;;;;;;;2.70;1.20;;;;;;;;;;5008630;28;20547;-71
2022/04/09 03:40:19;;;;;;;3.53;1.27;;;;;;;;;;5010429;28;20096;-71
2022/04/09 03:42:46;;;;;;;3.20;1.45;;;;;;;;;;5006612;28;20953;-71
2022/04/09 03:45:12;;;;;;;2.28;1.52;;;;;;;;;;5006441;28;20121;-71
2022/04/09 03:47:38;;;;;;;2.72;1.58;;;;;;;;;;5013977;28;20033;-71
2022/04/09 03:50:05;;;;;;;1.92;1.73;;;;;;;;;;5007367;28;20068;-71
2022/04/09 03:52:31;;;;;;;5.50;1.38;;;;;;;;;;5011748;28;20663;-71
2022/04/09 03:54:57;;;;;;;4.75;1.50;;;;;;;;;;5013950;28;20033;-71
2022/04/09 03:57:23;;;;;;;2.42;1.50;;;;;;;;;;5011574;28;20028;-70
2022/04/09 03:59:54;;;;;;;3.25;1.40;;;;;;;;;;5013654;28;20029;-72
2022/04/09 04:02:20;;;;;;;2.60;1.60;;;;;;;;;;5012559;28;20021;-71
2022/04/09 04:04:46;;;;;;;2.03;1.50;;;;;;;;;;5008958;28;20080;-71
2022/04/09 04:07:13;;;;;;;3.00;1.70;;;;;;;;;;5012846;28;20554;-71
2022/04/09 04:09:39;;;;;;;2.47;1.35;;;;;;;;;;5011197;28;20032;-71
2022/04/09 04:12:06;;;;;;;3.78;1.50;;;;;;;;;;5013778;28;20678;-72
2022/04/09 04:14:33;;;;;;;2.22;1.50;;;;;;;;;;5009511;28;20022;-71
2022/04/09 04:16:59;;;;;;;3.15;1.60;;;;;;;;;;5014500;28;20448;-71
2022/04/09 04:19:25;;;;;;;2.88;1.60;;;;;;;;;;5010880;28;20026;-71
2022/04/09 04:21:51;;;;;;;3.17;1.73;;;;;;;;;;5013886;28;20034;-71
2022/04/09 04:24:17;;;;;;;2.60;1.70;;;;;;;;;;5011445;28;20026;-71
2022/04/09 04:26:43;;;;;;;2.13;1.40;;;;;;;;;;5003626;28;20022;-71
2022/04/09 04:29:09;;;;;;;1.90;1.30;;;;;;;;;;5011411;28;20029;-71
2022/04/09 04:31:36;;;;;;;2.75;1.58;;;;;;;;;;5012933;28;20037;-71
2022/04/09 04:34:02;;;;;;;2.60;1.58;;;;;;;;;;5011823;28;20068;-71
2022/04/09 04:36:29;;;;;;;1.75;1.30;;;;;;;;;;5012520;28;20099;-71
2022/04/09 04:38:55;;;;;;;2.70;1.40;;;;;;;;;;5011184;28;20064;-71
2022/04/09 04:41:21;;;;;;;3.50;1.70;;;;;;;;;;5011709;28;20087;-71
2022/04/09 04:43:51;;;;;;;4.20;1.63;;;;;;;;;;5012715;28;20605;-73
2022/04/09 04:46:18;;;;;;;3.28;2.30;;;;;;;;;;5012296;28;20424;-73
2022/04/09 04:48:45;;;;;;;3.33;1.35;;;;;;;;;;5010917;28;20029;-71
2022/04/09 04:51:11;;;;;;;2.92;1.60;;;;;;;;;;5011044;28;20040;-71
2022/04/09 04:53:38;;;;;;;2.83;1.55;;;;;;;;;;5015668;28;20029;-71
2022/04/09 04:56:04;;;;;;;6.55;1.70;;;;;;;;;;5012935;28;20040;-70
2022/04/09 04:58:30;;;;;;;3.03;1.52;;;;;;;;;;5013500;28;20033;-71
2022/04/09 05:00:57;;;;;;;2.90;1.55;;;;;;;;;;5011245;28;20056;-70
2022/04/09 05:03:23;;;;;;;3.28;1.80;;;;;;;;;;5014758;28;20039;-70
2022/04/09 05:05:49;;;;;;;3.35;2.17;;;;;;;;;;5012562;28;20046;-70
2022/04/09 05:08:15;;;;;;;2.33;1.40;;;;;;;;;;5011748;28;20034;-69
2022/04/09 05:10:41;;;;;;;3.47;1.50;;;;;;;;;;5010484;28;20071;-72
2022/04/09 05:13:07;;;;;;;7.53;1.90;;;;;;;;;;5010104;28;20029;-70
2022/04/09 05:15:33;;;;;;;1.92;1.48;;;;;;;;;;5010356;28;20618;-70
2022/04/09 05:18:02;;;;;;;5.60;1.60;;;;;;;;;;5010337;28;20034;-71
2022/04/09 05:20:29;;;;;;;4.03;1.70;;;;;;;;;;5011015;28;20038;-70
2022/04/09 05:22:55;;;;;;;2.10;1.40;;;;;;;;;;5013609;28;20077;-70
2022/04/09 05:25:21;;;;;;;3.00;1.52;;;;;;;;;;5014475;28;20101;-79
2022/04/09 05:27:49;;;;;;;2.45;1.25;;;;;;;;;;5008715;28;20833;-70
2022/04/09 05:30:15;;;;;;;3.90;1.67;;;;;;;;;;5012137;28;20061;-69
2022/04/09 05:32:42;;;;;;;3.72;1.80;;;;;;;;;;5012801;28;20120;-69
2022/04/09 05:58:41;;;;;;;8.70;3.13;;;;;;;;;;5012165;28;20061;-71
2022/04/09 06:01:07;;;;;;;10.15;1.98;;;;;;;;;;5010378;28;20531;-71
2022/04/09 06:03:33;;;;;;;2.95;1.65;;;;;;;;;;5006724;28;20331;-72
2022/04/09 06:06:00;;;;;;;3.15;1.75;;;;;;;;;;5007993;28;20223;-71
2022/04/09 06:08:26;;;;;;;3.03;1.70;;;;;;;;;;5007955;28;20124;-73
2022/04/09 06:10:52;;;;;;;3.13;2.08;;;;;;;;;;5014557;28;20068;-71
2022/04/09 06:13:18;;;;;;;2.70;1.90;;;;;;;;;;5011161;28;20101;-71
2022/04/09 06:15:45;;;;;;;5.22;1.98;;;;;;;;;;5005615;28;20140;-71
2022/04/09 06:18:11;;;;;;;2.15;1.60;;;;;;;;;;5009313;28;20025;-71
2022/04/09 06:20:37;;;;;;;3.92;1.83;;;;;;;;;;5004644;28;20029;-71
2022/04/09 06:23:04;;;;;;;3.65;1.80;;;;;;;;;;5008477;28;20026;-72
2022/04/09 06:25:30;;;;;;;2.88;1.77;;;;;;;;;;5008261;28;20037;-71
2022/04/09 06:27:57;;;;;;;2.35;1.70;;;;;;;;;;5009529;28;20025;-71
2022/04/09 06:30:23;;;;;;;6.28;1.77;;;;;;;;;;4999240;28;20125;-71
2022/04/09 06:32:49;;;;;;;4.95;1.88;;;;;;;;;;5011061;28;20032;-71
2022/04/09 06:35:15;;;;;;;2.17;1.58;;;;;;;;;;5008628;28;20727;-71
2022/04/09 06:37:41;;;;;;;3.25;1.48;;;;;;;;;;4998299;28;20029;-71
2022/04/09 06:40:09;;;;;;;2.95;1.80;;;;;;;;;;4997992;28;20560;-72
2022/04/09 06:42:36;;;;;;;6.18;1.60;;;;;;;;;;5012280;28;20048;-75
2022/04/09 06:45:02;;;;;;;2.90;1.30;;;;;;;;;;5012751;28;20052;-77
2022/04/09 06:47:28;;;;;;;5.53;1.38;;;;;;;;;;5008688;28;20181;-72
2022/04/09 06:49:56;;;;;;;2.55;1.33;;;;;;;;;;5009861;28;20032;-72
2022/04/09 06:52:23;;;;;;;3.28;1.70;;;;;;;;;;5013286;28;20381;-72
2022/04/09 06:54:49;;;;;;;3.33;1.50;;;;;;;;;;5009646;28;20022;-71
2022/04/09 06:57:15;;;;;;;3.63;1.58;;;;;;;;;;5008099;28;20056;-72
2022/04/09 06:59:41;;;;;;;3.88;1.30;;;;;;;;;;5008420;28;20813;-72
2022/04/09 07:02:08;;;;;;;2.53;1.42;;;;;;;;;;5006553;28;20266;-72
2022/04/09 07:04:34;;;;;;;3.00;1.23;;;;;;;;;;5007073;28;20036;-72
2022/04/09 07:07:00;;;;;;;2.92;1.30;;;;;;;;;;5010146;28;20021;-72
2022/04/09 07:09:26;;;;;;;3.60;1.13;;;;;;;;;;5008329;28;20673;-71
2022/04/09 07:11:56;;;;;;;2.08;1.10;;;;;;;;;;5005716;28;20544;-74
2022/04/09 07:14:22;;;;;;;1.75;1.30;;;;;;;;;;5010923;28;20072;-74
2022/04/09 07:16:49;;;;;;;2.42;1.25;;;;;;;;;;5010899;28;20105;-73
2022/04/09 07:19:15;;;;;;;3.38;1.30;;;;;;;;;;5008581;28;20025;-74
2022/04/09 07:21:41;;;;;;;2.95;1.20;;;;;;;;;;5010535;28;20021;-72
2022/04/09 07:24:17;;;;;;;2.38;1.50;;;;;;;;;;5015984;28;20021;-73
2022/04/09 07:26:51;;;;;;;2.38;1.30;;;;;;;;;;5010956;28;20038;-73
2022/04/09 07:29:23;;;;;;;6.38;1.67;;;;;;;;;;5016022;28;20028;-73
2022/04/09 07:31:49;;;;;;;;;;;;;;;;;;5011652;28;20087;-73
2022/04/09 07:34:16;;;;;;;3.58;1.30;;;;;;;;;;5011613;28;19909;-73
2022/04/09 07:36:42;;;;;;;3.10;1.10;;;;;;;;;;5016931;28;20025;-72
2022/04/09 07:39:09;;;;;;;2.15;1.17;;;;;;;;;;5013431;28;20504;-74
2022/04/09 07:41:35;;;;;;;2.15;1.13;;;;;;;;;;5017909;28;20571;-74
2022/04/09 07:44:02;;;;;;;2.58;1.00;;;;;;;;;;5014911;28;20033;-74
2022/04/09 07:46:28;;;;;;;2.30;1.10;;;;;;;;;;5010421;28;20033;-72
2022/04/09 07:48:54;;;;;;;2.25;1.20;;;;;;;;;;5011723;28;20021;-74
2022/04/09 07:51:23;;;;;;;3.58;1.20;;;;;;;;;;5011051;28;20036;-74
2022/04/09 07:53:49;;;;;;;2.50;1.13;;;;;;;;;;5011482;28;20354;-73
2022/04/09 07:56:16;;;;;;;2.88;1.10;;;;;;;;;;5012157;28;20120;-73
2022/04/09 07:58:45;;;;;;;3.75;1.20;;;;;;;;;;5011609;28;20041;-74
2022/04/09 08:01:11;;;;;;;2.20;1.10;;;;;;;;;;4990670;28;20037;-75
2022/04/09 08:03:40;;;;;;;2.08;1.38;;;;;;;;;;5014722;28;20083;-72
2022/04/09 08:06:07;;;;;;;6.07;1.42;;;;;;;;;;5010322;28;20166;-80
2022/04/09 08:08:33;;;;;;;2.22;1.02;;;;;;;;;;5007651;28;20103;-75
2022/04/09 08:11:00;;;;;;;1.65;1.20;;;;;;;;;;5015696;28;20043;-80
2022/04/09 08:13:27;;;;;;;4.68;1.50;;;;;;;;;;4994912;28;20042;-79
2022/04/09 08:15:56;;;;;;;2.13;1.35;;;;;;;;;;5011176;28;20620;-81
2022/04/09 08:18:25;;;;;;;2.65;1.27;;;;;;;;;;5012908;28;20033;-81
2022/04/09 08:20:53;;;;;;;2.97;1.30;;;;;;;;;;5011962;28;20452;-77
2022/04/09 08:23:19;;;;;;;3.63;1.42;;;;;;;;;;5010526;28;20736;-82
2022/04/09 08:25:46;;;;;;;2.45;1.48;;;;;;;;;;4993250;28;20046;-82
2022/04/09 08:28:13;;;;;;;3.53;1.92;;;;;;;;;;4996076;28;20144;-81
2022/04/09 08:30:41;;;;;;;4.22;2.50;;;;;;;;;;4992126;28;20647;-82
2022/04/09 08:33:10;;;;;;;2.70;1.50;;;;;;;;;;5011698;28;20038;-82
2022/04/09 08:35:36;;;;;;;2.92;1.92;;;;;;;;;;5005018;28;20026;-82
2022/04/09 08:38:03;;;;;;;2.70;1.40;;;;;;;;;;4991317;28;20437;-80
2022/04/09 08:40:38;;;;;;;3.50;1.15;;;;;;;;;;4989073;28;20754;-81
2022/04/09 08:43:05;;;;;;;7.07;1.70;;;;;;;;;;4994832;28;20030;-79
2022/04/09 08:45:35;;;;;;;1.95;1.17;;;;;;;;;;5013308;28;20096;-81
2022/04/09 08:48:08;;;;;;;3.50;1.08;;;;;;;;;;5012204;28;20550;-82
2022/04/09 08:50:38;;;;;;;2.45;1.20;;;;;;;;;;5007133;28;20037;-79
2022/04/09 08:53:12;;;;;;;4.53;1.75;;;;;;;;;;5011405;28;20480;-79
2022/04/09 08:55:40;;;;;;;4.60;1.40;;;;;;;;;;5017293;28;20036;-78
2022/04/09 08:58:07;;;;;;;3.35;1.55;;;;;;;;;;5009862;28;20449;-72
2022/04/09 09:00:34;;;;;;;2.03;1.20;;;;;;;;;;5014342;28;20420;-72
2022/04/09 09:03:01;;;;;;;2.10;1.20;;;;;;;;;;5002957;28;20023;-72
2022/04/09 09:05:29;;;;;;;3.15;1.27;;;;;;;;;;5009115;28;20171;-73
2022/04/09 09:07:56;;;;;;;1.52;1.20;;;;;;;;;;5014066;28;20068;-72
2022/04/09 09:10:22;;;;;;;3.40;1.85;;;;;;;;;;5006031;28;20618;-72
2022/04/09 09:13:05;;;;;;;4.28;1.27;;;;;;;;;;5017948;28;20043;-76
2022/04/09 09:15:55;;;;;;;2.47;1.33;;;;;;;;;;5008973;28;20030;-73
2022/04/09 09:18:22;;;;;;;2.38;1.33;;;;;;;;;;5010095;28;20464;-74
2022/04/09 09:20:51;;;;;;;3.58;1.50;;;;;;;;;;5009702;28;20611;-72
2022/04/09 09:23:21;;;;;;;3.53;1.25;;;;;;;;;;5012708;28;20734;-72
2022/04/09 09:25:51;;;;;;;4.13;1.30;;;;;;;;;;5010604;28;20022;-71
2022/04/09 09:28:24;;;;;;;3.30;1.35;;;;;;;;;;5010426;28;20046;-72
2022/04/09 09:30:50;;;;;;;5.55;1.70;;;;;;;;;;5009118;28;20568;-72
2022/04/09 09:33:17;;;;;;;3.30;1.42;;;;;;;;;;5012514;28;20570;-72
2022/04/09 09:35:50;;;;;;;3.28;1.20;;;;;;;;;;5009065;28;20022;-73
2022/04/09 09:38:21;;;;;;;3.13;1.50;;;;;;;;;;5010163;28;20043;-74
2022/04/09 09:40:47;;;;;;;2.45;1.50;;;;;;;;;;5011224;28;20053;-74
2022/04/09 09:43:14;;;;;;;3.58;1.60;;;;;;;;;;5009908;28;20104;-74
2022/04/09 09:45:43;;;;;;;2.72;1.45;;;;;;;;;;5012680;28;20489;-76
2022/04/09 09:48:39;;;;;;;3.55;1.60;;;;;;;;;;4997546;28;20037;-74
2022/04/09 09:51:05;;;;;;;5.10;2.13;;;;;;;;;;4992334;28;20504;-73
2022/04/09 09:53:33;;;;;;;4.38;1.90;;;;;;;;;;5018596;28;20049;-73
2022/04/09 09:55:59;;;;;;;4.97;1.90;;;;;;;;;;4992443;28;20025;-77
2022/04/09 09:58:26;;;;;;;6.82;2.15;;;;;;;;;;5014426;28;20045;-77
2022/04/09 10:00:54;;;;;;;5.18;1.92;;;;;;;;;;5014351;28;20091;-74
2022/04/09 10:03:20;;;;;;;3.90;1.63;;;;;;;;;;5010181;28;20030;-74
2022/04/09 10:05:48;;;;;;;4.72;1.70;;;;;;;;;;5010274;28;20044;-74
2022/04/09 10:08:15;;;;;;;3.80;1.80;;;;;;;;;;4993928;28;20033;-74
2022/04/09 10:10:46;;;;;;;4.10;1.67;;;;;;;;;;5011757;28;20009;-74
2022/04/09 10:13:13;;;;;;;3.03;1.90;;;;;;;;;;5012020;28;20029;-74
2022/04/09 10:15:41;;;;;;;3.38;1.80;;;;;;;;;;5008923;28;20029;-75
2022/04/09 10:18:09;;;;;;;4.55;2.03;;;;;;;;;;5010570;28;20037;-75
2022/04/09 10:20:35;;;;;;;2.88;1.90;;;;;;;;;;5011254;28;20029;-74
2022/04/09 10:23:05;;;;;;;4.70;2.10;;;;;;;;;;5013015;28;20030;-74
2022/04/09 10:25:32;;;;;;;4.30;1.80;;;;;;;;;;5012002;28;20040;-72
2022/04/09 10:28:02;;;;;;;4.97;2.20;;;;;;;;;;5007071;28;20025;-74
2022/04/09 10:30:29;;;;;;;8.32;2.65;;;;;;;;;;5012684;28;20024;-74
2022/04/09 10:32:57;;;;;;;5.30;2.70;;;;;;;;;;5014937;28;20022;-73
2022/04/09 10:35:23;;;;;;;4.72;2.63;;;;;;;;;;5008052;28;20835;-77
2022/04/09 10:38:09;;;;;;;6.10;2.70;;;;;;;;;;5014938;28;20040;-73
2022/04/09 10:40:55;;;;;;;4.22;2.45;;;;;;;;;;5011927;28;20124;-75
2022/04/09 10:43:25;;;;;;;5.53;2.38;;;;;;;;;;5009823;28;20759;-74
2022/04/09 10:46:11;;;;;;;3.10;2.40;;;;;;;;;;5012144;28;20026;-74
2022/04/09 10:48:42;;;;;;;3.10;1.80;;;;;;;;;;5012358;28;20044;-78
2022/04/09 10:51:12;;;;;;;3.47;1.90;;;;;;;;;;5012696;28;20034;-75
2022/04/09 10:53:42;;;;;;;6.00;2.08;;;;;;;;;;5011111;28;20026;-73
2022/04/09 10:56:24;;;;;;;4.75;1.60;;;;;;;;;;5013388;28;20307;-73
2022/04/09 10:59:09;;;;;;;9.07;1.77;;;;;;;;;;5013127;28;20545;-74
2022/04/09 11:01:50;;;;;;;3.15;1.80;;;;;;;;;;5010573;28;20420;-72
2022/04/09 11:04:34;;;;;;;5.20;2.00;;;;;;;;;;5012774;28;20537;-76
2022/04/09 11:07:14;;;;;;;4.18;1.90;;;;;;;;;;5013883;28;20568;-72
2022/04/09 11:09:59;;;;;;;6.85;2.13;;;;;;;;;;5013839;28;20026;-73
2022/04/09 11:12:42;;;;;;;6.80;2.47;;;;;;;;;;5010908;28;20032;-75
2022/04/09 11:15:08;;;;;;;4.68;1.95;;;;;;;;;;5010504;28;20080;-73
2022/04/09 11:17:34;;;;;;;2.40;1.85;;;;;;;;;;5014719;28;20069;-74
2022/04/09 11:20:02;;;;;;;5.32;1.92;;;;;;;;;;5010424;28;20033;-73
2022/04/09 11:22:32;;;;;;;3.22;2.00;;;;;;;;;;5013395;28;20038;-74
2022/04/09 11:24:58;;;;;;;3.60;1.77;;;;;;;;;;5012371;28;20142;-74
2022/04/09 11:27:26;;;;;;;3.45;2.10;;;;;;;;;;5019503;28;20025;-74
2022/04/09 11:29:54;;;;;;;4.60;2.17;;;;;;;;;;4998114;28;20040;-74
2022/04/09 11:32:21;;;;;;;4.05;1.98;;;;;;;;;;5008880;28;20688;-77
2022/04/09 11:34:47;;;;;;;6.35;2.42;;;;;;;;;;5015699;28;20627;-74
2022/04/09 11:37:13;;;;;;;4.53;2.28;;;;;;;;;;5006188;28;20624;-75
2022/04/09 11:39:43;;;;;;;5.70;2.20;;;;;;;;;;5010833;28;20026;-73
2022/04/09 11:42:10;;;;;;;5.47;2.08;;;;;;;;;;4991589;28;20448;-73
2022/04/09 11:44:38;;;;;;;3.70;1.70;;;;;;;;;;5007420;28;20053;-73
2022/04/09 11:47:14;;;;;;;5.00;1.95;;;;;;;;;;5012637;28;20057;-73
2022/04/09 11:49:41;;;;;;;2.97;1.98;;;;;;;;;;5013346;28;20026;-73
2022/04/09 11:52:07;;;;;;;4.55;2.13;;;;;;;;;;5014381;28;20481;-74
2022/04/09 11:54:34;;;;;;;6.95;2.25;;;;;;;;;;5017778;28;20056;-74
2022/04/09 11:57:01;;;;;;;5.40;2.17;;;;;;;;;;5012600;28;20049;-73
2022/04/09 11:59:30;;;;;;;7.47;3.65;;;;;;;;;;5013839;28;20018;-73
2022/04/09 12:02:00;;;;;;;7.43;2.83;;;;;;;;;;5008541;28;20030;-74
2022/04/09 12:04:35;;;;;;;6.50;2.63;;;;;;;;;;5011744;28;20029;-73
2022/04/09 12:07:05;;;;;;;6.55;3.13;;;;;;;;;;5016321;28;20037;-74
2022/04/09 12:09:31;;;;;;;7.85;3.13;;;;;;;;;;5020887;28;20034;-75
2022/04/09 12:12:01;;;;;;;5.97;3.03;;;;;;;;;;5003141;28;20029;-73
2022/04/09 12:14:27;;;;;;;8.55;2.63;;;;;;;;;;5002095;28;20029;-76
2022/04/09 12:16:54;;;;;;;3.47;1.88;;;;;;;;;;5008963;28;20052;-73
2022/04/09 12:19:30;;;;;;;7.10;3.28;;;;;;;;;;5018337;28;20026;-73
2022/04/09 12:21:56;;;;;;;4.47;2.58;;;;;;;;;;5011121;28;20429;-72
2022/04/09 12:24:22;;;;;;;5.47;3.17;;;;;;;;;;4996936;28;20026;-73
2022/04/09 12:26:55;;;;;;;5.53;3.35;;;;;;;;;;5009784;28;20529;-74
2022/04/09 12:29:29;;;;;;;7.55;2.83;;;;;;;;;;5012577;28;20501;-74
2022/04/09 12:32:15;;;;;;;4.82;2.10;;;;;;;;;;5014165;28;20052;-74
2022/04/09 12:34:54;;;;;;;5.68;2.50;;;;;;;;;;5014812;28;20049;-74
2022/04/09 12:37:21;;;;;;;6.47;2.20;;;;;;;;;;5008887;28;20030;-73
2022/04/09 12:39:47;;;;;;;3.15;1.88;;;;;;;;;;5010451;28;20501;-70
2022/04/09 12:42:15;;;;;;;4.88;1.77;;;;;;;;;;5011637;28;20492;-72
2022/04/09 12:44:43;;;;;;;6.65;3.17;;;;;;;;;;5009804;28;20583;-73
2022/04/09 12:47:09;;;;;;;4.30;2.03;;;;;;;;;;5011932;28;20041;-72
2022/04/09 12:49:35;;;;;;;4.00;1.67;;;;;;;;;;5011996;28;20297;-72
2022/04/09 12:52:01;;;;;;;5.68;2.72;;;;;;;;;;5013646;28;20026;-73
2022/04/09 12:54:28;;;;;;;5.47;2.55;;;;;;;;;;5004828;28;20291;-76
2022/04/09 12:56:55;;;;;;;7.05;2.15;;;;;;;;;;5009821;28;20149;-74
2022/04/09 12:59:21;;;;;;;3.95;1.85;;;;;;;;;;4995928;28;20064;-73
2022/04/09 13:01:48;;;;;;;3.55;1.60;;;;;;;;;;4999428;28;20377;-73
2022/04/09 13:04:14;;;;;;;5.55;3.13;;;;;;;;;;5012458;28;20089;-73
2022/04/09 13:06:41;;;;;;;7.70;3.47;;;;;;;;;;5014526;28;20025;-74
2022/04/09 13:09:10;;;;;;;1.98;1.23;;;;;;;;;;5013671;28;20025;-74
2022/04/09 13:11:37;;;;;;;3.30;1.70;;;;;;;;;;5012846;28;20120;-74
2022/04/09 13:14:03;;;;;;;2.30;1.20;;;;;;;;;;5008701;28;20485;-78
2022/04/09 13:16:29;;;;;;;2.78;1.30;;;;;;;;;;5014387;28;20033;-75
2022/04/09 13:18:57;;;;;;;2.58;1.40;;;;;;;;;;5012063;28;20025;-74
2022/04/09 13:21:24;;;;;;;2.60;1.30;;;;;;;;;;5009239;28;20061;-74
2022/04/09 13:23:50;;;;;;;7.57;3.00;;;;;;;;;;5017337;28;20037;-74
2022/04/09 13:26:16;;;;;;;5.07;2.35;;;;;;;;;;5016102;28;20037;-75
2022/04/09 13:28:43;;;;;;;4.65;1.65;;;;;;;;;;5013331;28;20030;-75
2022/04/09 13:31:09;;;;;;;3.53;1.50;;;;;;;;;;4993801;28;20040;-72
2022/04/09 13:33:35;;;;;;;4.25;1.50;;;;;;;;;;5014326;28;20108;-79
2022/04/09 13:36:01;;;;;;;3.47;1.40;;;;;;;;;;5015151;28;20021;-74
2022/04/09 13:38:27;;;;;;;4.18;1.70;;;;;;;;;;5012708;28;20502;-73
2022/04/09 13:40:54;;;;;;;5.32;1.55;;;;;;;;;;4994677;28;20442;-73
2022/04/09 13:43:20;;;;;;;6.40;2.20;;;;;;;;;;5008104;28;20473;-73
2022/04/09 13:45:46;;;;;;;3.92;1.98;;;;;;;;;;5014414;28;20025;-73
2022/04/09 13:48:12;;;;;;;7.50;2.45;;;;;;;;;;5010885;28;20042;-73
2022/04/09 13:50:39;;;;;;;3.45;1.63;;;;;;;;;;5007661;28;20438;-73
2022/04/09 13:53:05;;;;;;;4.95;1.75;;;;;;;;;;5013256;28;20411;-73
2022/04/09 13:55:31;;;;;;;3.67;2.00;;;;;;;;;;5017400;28;20390;-73
2022/04/09 13:57:57;;;;;;;6.18;2.08;;;;;;;;;;5009887;28;20102;-74
2022/04/09 14:00:23;;;;;;;4.68;1.98;;;;;;;;;;5012139;28;20103;-72
2022/04/09 14:02:50;;;;;;;6.50;2.40;;;;;;;;;;5014955;28;20036;-74
2022/04/09 14:05:16;;;;;;;3.13;1.80;;;;;;;;;;5007005;28;20076;-74
2022/04/09 14:07:42;;;;;;;3.22;1.73;;;;;;;;;;5013505;28;20033;-74
2022/04/09 14:10:09;;;;;;;4.45;1.83;;;;;;;;;;5009513;28;20181;-75
2022/04/09 14:12:36;;;;;;;2.47;1.48;;;;;;;;;;5015625;28;20046;-73
2022/04/09 14:15:02;;;;;;;5.57;1.90;;;;;;;;;;5011383;28;20145;-74
2022/04/09 14:17:28;;;;;;;3.05;1.50;;;;;;;;;;5011451;28;20554;-74
2022/04/09 14:19:55;;;;;;;3.10;1.40;;;;;;;;;;5012973;28;20037;-73
2022/04/09 14:22:21;;;;;;;3.70;1.63;;;;;;;;;;5013264;28;20037;-75
2022/04/09 14:24:47;;;;;;;5.75;1.65;;;;;;;;;;5015162;28;20024;-75
2022/04/09 14:27:13;;;;;;;7.22;2.30;;;;;;;;;;5014156;28;20378;-72
2022/04/09 14:29:40;;;;;;;4.40;1.58;;;;;;;;;;5012320;28;20060;-76
2022/04/09 14:32:07;;;;;;;3.80;1.63;;;;;;;;;;5011064;28;20025;-73
2022/04/09 14:34:33;;;;;;;4.38;1.83;;;;;;;;;;5015740;28;20018;-74
2022/04/09 14:36:59;;;;;;;4.20;1.52;;;;;;;;;;5009676;28;20231;-73
2022/04/09 14:39:25;;;;;;;4.30;1.73;;;;;;;;;;4999568;28;20068;-77
2022/04/09 14:41:53;;;;;;;4.78;1.92;;;;;;;;;;5011822;28;20101;-73
2022/04/09 14:44:20;;;;;;;3.13;1.50;;;;;;;;;;5016301;28;20022;-73
2022/04/09 14:46:46;;;;;;;4.10;1.50;;;;;;;;;;5009772;28;20579;-72
2022/04/09 14:49:12;;;;;;;6.30;1.85;;;;;;;;;;5006267;28;20512;-74
2022/04/09 14:51:38;;;;;;;6.35;1.80;;;;;;;;;;5011941;28;20045;-75
2022/04/09 14:54:05;;;;;;;4.07;1.40;;;;;;;;;;5013295;28;20032;-74
2022/04/09 14:56:31;;;;;;;3.47;1.70;;;;;;;;;;5011284;28;20088;-81
2022/04/09 14:59:00;;;;;;;6.00;1.70;;;;;;;;;;5008065;28;20028;-76
2022/04/09 15:01:27;;;;;;;4.18;2.15;;;;;;;;;;5013139;28;20049;-74
2022/04/09 15:03:55;;;;;;;6.20;1.75;;;;;;;;;;5003980;28;20029;-74
2022/04/09 15:06:21;;;;;;;3.83;1.95;;;;;;;;;;5015074;28;20029;-78
2022/04/09 15:08:47;;;;;;;5.13;1.80;;;;;;;;;;5015568;28;20032;-76